Boston, Massachusetts
Traffic Map
Current Weather Conditions
Boston, Massachusetts
Overcast Light Rain
Overcast
37°
Feels Like: 27°
Wind Chill: 27° Ceiling: 800
Heat Index: 37° Visibility: 3mi
Dew Point: 37° Wind: 18mph
Humidity: 100% Direction: 90° (E)
Pressure: 30.02in Gusts: 0mph
Raw Report DataKBOS 180816Z 09016KT 3SM -RA BR BKN008 OVC012 03/03 A3002 RMK AO2 P0002 T00280028 $
Traffic Incident Summary
Active as of:
Severity:
Category:
InformationThere was an issue retrieving the traffic information for this location. Please try a different location or try again shortly.
Advertisements
Track Severe Weather on mobile